createdAt,value
2017-06-02T00:00:30.699Z,43.10
2017-06-02T00:02:58.989Z,43.60
2017-06-02T00:05:27.273Z,43.60
2017-06-02T00:07:55.570Z,43.50
2017-06-02T00:10:23.868Z,43.70
2017-06-02T00:12:52.142Z,43.90
2017-06-02T00:15:20.773Z,44.00
2017-06-02T00:17:49.086Z,44.10
2017-06-02T00:20:17.346Z,44.10
2017-06-02T00:22:45.611Z,44.30
2017-06-02T00:25:13.892Z,44.60
2017-06-02T00:27:42.155Z,44.70
2017-06-02T00:30:10.431Z,45.10
2017-06-02T00:32:38.718Z,45.20
2017-06-02T00:35:06.987Z,45.10
2017-06-02T00:37:35.248Z,45.10
2017-06-02T00:40:03.529Z,45.50
2017-06-02T00:42:31.831Z,45.90
2017-06-02T00:45:00.110Z,45.80
2017-06-02T00:47:28.411Z,45.50
2017-06-02T00:49:56.705Z,45.80
2017-06-02T00:52:24.257Z,45.80
2017-06-02T00:54:52.526Z,46.10
2017-06-02T00:57:20.822Z,46.30
2017-06-02T00:59:49.136Z,46.30
2017-06-02T01:02:17.403Z,46.40
2017-06-02T01:04:45.711Z,46.80
2017-06-02T01:07:13.994Z,46.80
2017-06-02T01:09:42.287Z,46.80
2017-06-02T01:12:10.555Z,47.00
2017-06-02T01:14:38.832Z,47.20
2017-06-02T01:17:07.110Z,47.60
2017-06-02T01:19:35.388Z,47.80
2017-06-02T01:22:03.662Z,48.00
2017-06-02T01:24:31.953Z,48.00
2017-06-02T01:27:00.283Z,48.10
2017-06-02T01:29:28.543Z,48.30
2017-06-02T01:31:56.848Z,48.30
2017-06-02T01:34:25.161Z,48.30
2017-06-02T01:36:53.440Z,48.20
2017-06-02T01:39:21.734Z,48.20
2017-06-02T01:41:50.024Z,48.80
2017-06-02T01:44:18.307Z,49.10
2017-06-02T01:46:46.579Z,49.00
2017-06-02T01:49:14.875Z,49.90
2017-06-02T01:51:43.146Z,49.10
2017-06-02T01:54:11.425Z,49.20
2017-06-02T01:56:39.706Z,49.60
2017-06-02T01:59:07.986Z,49.60
2017-06-02T02:01:36.267Z,49.70
2017-06-02T02:04:04.551Z,49.80
2017-06-02T02:06:32.835Z,49.50
2017-06-02T02:09:01.107Z,49.60
2017-06-02T02:11:29.370Z,49.40
2017-06-02T02:13:57.653Z,49.40
2017-06-02T02:16:25.952Z,49.50
2017-06-02T02:18:54.237Z,49.40
2017-06-02T02:21:22.493Z,49.20
2017-06-02T02:23:50.791Z,49.50
2017-06-02T02:26:19.093Z,49.70
2017-06-02T02:28:47.350Z,49.70
2017-06-02T02:31:15.635Z,49.80
2017-06-02T02:33:43.923Z,49.70
2017-06-02T02:36:12.220Z,49.70
2017-06-02T02:38:39.768Z,49.70
2017-06-02T02:41:08.062Z,50.00
2017-06-02T02:43:35.571Z,50.00
2017-06-02T02:46:03.825Z,50.30
2017-06-02T02:48:32.109Z,50.40
2017-06-02T02:51:00.363Z,50.20
2017-06-02T02:53:28.665Z,50.50
2017-06-02T02:55:56.944Z,50.40
2017-06-02T02:58:25.249Z,50.60
2017-06-02T03:00:53.565Z,50.50
2017-06-02T03:03:21.888Z,51.00
2017-06-02T03:23:08.747Z,51.10
2017-06-02T03:25:37.024Z,51.30
2017-06-02T03:28:05.299Z,51.20
2017-06-02T03:30:33.595Z,51.20
2017-06-02T03:33:01.906Z,51.20
2017-06-02T03:35:30.178Z,51.20
2017-06-02T03:37:58.481Z,51.20
2017-06-02T03:40:26.748Z,50.70
2017-06-02T03:42:55.038Z,50.80
2017-06-02T03:45:23.333Z,50.80
2017-06-02T03:47:51.623Z,50.70
2017-06-02T03:50:19.192Z,50.70
2017-06-02T03:52:47.524Z,51.00
2017-06-02T03:55:15.031Z,51.00
2017-06-02T03:57:43.330Z,51.50
2017-06-02T04:00:11.633Z,51.10
2017-06-02T04:02:39.933Z,51.30
2017-06-02T04:05:08.203Z,51.50
2017-06-02T04:07:36.473Z,51.80
2017-06-02T04:10:04.801Z,51.80
2017-06-02T04:12:33.087Z,52.00
2017-06-02T04:15:01.409Z,51.60
2017-06-02T04:17:29.779Z,51.70
2017-06-02T04:19:58.088Z,51.80
2017-06-02T04:22:26.366Z,51.50
2017-06-02T04:24:54.712Z,51.80
2017-06-02T04:27:22.976Z,52.10
2017-06-02T04:29:51.265Z,52.00
2017-06-02T04:32:19.537Z,51.90
2017-06-02T04:34:47.831Z,51.80
2017-06-02T04:37:16.127Z,51.70
2017-06-02T04:39:44.404Z,51.90
2017-06-02T04:42:12.670Z,51.80
2017-06-02T04:44:40.958Z,51.50
2017-06-02T04:47:09.243Z,51.70
2017-06-02T04:49:37.523Z,51.80
2017-06-02T04:52:05.036Z,51.80
2017-06-02T04:54:33.317Z,51.80
2017-06-02T04:57:01.611Z,51.30
2017-06-02T04:59:29.938Z,50.90
2017-06-02T05:01:58.212Z,50.70
2017-06-02T05:04:26.493Z,50.70
2017-06-02T05:06:54.771Z,50.00
2017-06-02T05:09:23.052Z,49.00
2017-06-02T05:11:51.372Z,48.30
2017-06-02T05:14:19.655Z,48.30
2017-06-02T05:16:47.946Z,48.30
2017-06-02T05:19:15.451Z,48.30
2017-06-02T05:21:43.719Z,48.80
2017-06-02T05:24:12.010Z,49.20
2017-06-02T05:26:40.290Z,49.10
2017-06-02T05:29:08.576Z,48.90
2017-06-02T05:31:36.862Z,49.10
2017-06-02T05:34:05.136Z,49.00
2017-06-02T05:36:33.399Z,49.10
2017-06-02T05:39:00.965Z,49.10
2017-06-02T05:41:29.267Z,49.50
2017-06-02T05:43:57.750Z,49.70
2017-06-02T05:46:26.035Z,49.10
2017-06-02T05:48:54.314Z,49.50
2017-06-02T05:51:22.604Z,48.80
2017-06-02T05:53:50.887Z,48.50
2017-06-02T05:56:19.175Z,48.20
2017-06-02T05:58:47.450Z,47.90
2017-06-02T06:01:15.835Z,48.30
2017-06-02T06:03:44.118Z,47.80
2017-06-02T06:06:12.518Z,47.60
2017-06-02T06:08:40.793Z,47.90
2017-06-02T06:11:09.054Z,48.10
2017-06-02T06:13:37.654Z,47.50
2017-06-02T06:16:05.954Z,47.70
2017-06-02T06:18:34.239Z,47.20
2017-06-02T06:21:02.535Z,47.10
2017-06-02T06:23:30.814Z,47.10
2017-06-02T06:25:59.090Z,47.10
2017-06-02T06:28:27.382Z,47.00
2017-06-02T06:30:54.892Z,47.00
2017-06-02T06:33:23.170Z,45.80
2017-06-02T06:35:51.459Z,44.30
2017-06-02T06:38:19.752Z,44.30
2017-06-02T06:40:48.011Z,44.60
2017-06-02T06:43:16.303Z,44.70
2017-06-02T06:45:44.579Z,41.50
2017-06-02T06:48:13.362Z,41.20
2017-06-02T06:50:41.682Z,41.20
2017-06-02T06:53:09.989Z,40.00
2017-06-02T06:55:38.280Z,40.60
2017-06-02T06:58:06.579Z,41.10
2017-06-02T07:00:34.847Z,41.30
2017-06-02T07:03:03.126Z,40.10
2017-06-02T07:05:31.547Z,40.80
2017-06-02T07:07:59.895Z,40.10
2017-06-02T07:10:28.178Z,40.80
2017-06-02T07:12:56.464Z,41.10
2017-06-02T07:15:25.000Z,41.70
2017-06-02T07:17:53.261Z,40.80
2017-06-02T07:20:21.537Z,40.20
2017-06-02T07:22:49.857Z,38.10
2017-06-02T07:25:18.143Z,38.90
2017-06-02T07:27:46.482Z,37.90
2017-06-02T07:30:14.766Z,38.50
2017-06-02T07:32:43.059Z,37.20
2017-06-02T07:35:11.348Z,37.50
2017-06-02T07:37:39.636Z,37.30
2017-06-02T07:40:07.924Z,36.40
2017-06-02T07:42:36.233Z,36.00
2017-06-02T07:45:04.573Z,35.60
2017-06-02T07:47:32.877Z,35.60
2017-06-02T07:50:01.153Z,35.60
2017-06-02T07:52:29.463Z,34.20
2017-06-02T07:54:57.756Z,34.20
2017-06-02T07:57:26.054Z,33.80
2017-06-02T07:59:54.341Z,32.60
2017-06-02T08:02:22.638Z,33.70
2017-06-02T08:04:50.911Z,32.80
2017-06-02T08:07:19.189Z,32.30
2017-06-02T08:09:47.528Z,32.90
2017-06-02T08:12:15.822Z,31.80
2017-06-02T08:14:44.120Z,31.20
2017-06-02T08:17:11.656Z,31.20
2017-06-02T08:19:39.939Z,31.00
2017-06-02T08:22:08.252Z,30.20
2017-06-02T08:24:36.548Z,30.60
2017-06-02T08:27:04.799Z,30.80
2017-06-02T08:29:33.141Z,31.40
2017-06-02T08:32:01.444Z,29.90
2017-06-02T08:34:29.708Z,30.30
2017-06-02T08:36:58.014Z,31.10
2017-06-02T08:39:26.281Z,30.60
2017-06-02T08:41:54.563Z,31.00
2017-06-02T08:44:22.851Z,30.90
2017-06-02T08:46:51.111Z,31.60
2017-06-02T08:49:19.438Z,31.10
2017-06-02T08:51:47.742Z,31.20
2017-06-02T08:54:16.326Z,31.60
2017-06-02T08:56:44.598Z,30.50
2017-06-02T08:59:12.126Z,30.40
2017-06-02T09:01:40.400Z,30.20
2017-06-02T09:04:08.722Z,30.70
2017-06-02T09:06:37.079Z,30.30
2017-06-02T09:09:05.360Z,30.00
2017-06-02T09:11:33.654Z,29.60
2017-06-02T09:14:01.161Z,29.60
2017-06-02T09:16:29.434Z,30.40
2017-06-02T09:18:57.722Z,30.40
2017-06-02T09:21:26.006Z,31.30
2017-06-02T09:23:54.335Z,31.10
2017-06-02T09:26:22.627Z,30.50
2017-06-02T09:28:50.904Z,29.30
2017-06-02T09:31:19.233Z,27.50
2017-06-02T09:33:47.523Z,27.80
2017-06-02T09:36:15.818Z,27.90
2017-06-02T09:38:44.106Z,29.00
2017-06-02T09:41:13.363Z,29.20
2017-06-02T09:43:41.647Z,28.00
2017-06-02T09:46:09.915Z,27.00
2017-06-02T09:48:38.191Z,26.10
2017-06-02T09:51:06.490Z,26.40
2017-06-02T09:53:34.767Z,26.60
2017-06-02T09:56:03.131Z,27.10
2017-06-02T09:58:31.438Z,27.70
2017-06-02T10:00:59.708Z,27.80
2017-06-02T10:03:27.977Z,27.70
2017-06-02T10:23:14.702Z,26.10
2017-06-02T10:25:43.016Z,26.60
2017-06-02T10:28:11.297Z,26.40
2017-06-02T10:30:39.588Z,24.40
2017-06-02T10:33:07.851Z,24.80
2017-06-02T10:35:36.129Z,24.80
2017-06-02T10:38:04.394Z,24.30
2017-06-02T10:40:58.770Z,24.20
2017-06-02T10:43:26.278Z,22.20
2017-06-02T10:45:53.797Z,19.20
2017-06-02T10:48:21.339Z,18.10
2017-06-02T10:50:48.870Z,16.70
2017-06-02T10:53:16.452Z,15.90
2017-06-02T10:55:45.036Z,14.20
2017-06-02T10:58:12.565Z,14.20
2017-06-02T11:00:40.099Z,14.20
2017-06-02T11:03:07.615Z,14.00
2017-06-02T11:05:35.148Z,13.50
2017-06-02T11:08:02.683Z,13.20
2017-06-02T11:10:30.225Z,11.40
2017-06-02T11:12:57.750Z,11.00
2017-06-02T11:15:25.284Z,10.70
2017-06-02T11:17:52.967Z,11.20
2017-06-02T11:20:20.536Z,10.80
2017-06-02T11:22:48.059Z,11.10
2017-06-02T11:25:15.572Z,10.40
2017-06-02T11:27:43.078Z,10.30
2017-06-02T11:30:10.593Z,9.10
2017-06-02T11:32:38.103Z,9.10
2017-06-02T11:35:05.641Z,8.30
2017-06-02T11:37:33.171Z,7.70
2017-06-02T11:40:00.674Z,7.70
2017-06-02T11:42:28.192Z,7.70
2017-06-02T11:44:55.705Z,7.30
2017-06-02T11:47:23.221Z,7.00
2017-06-02T11:49:50.745Z,7.50
2017-06-02T11:52:18.268Z,7.10
2017-06-02T11:54:45.775Z,7.40
2017-06-02T11:57:13.289Z,6.60
2017-06-02T11:59:40.813Z,7.80
2017-06-02T12:02:08.359Z,6.80
2017-06-02T12:04:35.883Z,6.70
2017-06-02T12:07:03.360Z,7.00
2017-06-02T12:09:30.876Z,7.10
2017-06-02T12:11:58.415Z,6.50
2017-06-02T12:14:25.971Z,5.70
2017-06-02T12:16:53.495Z,5.60
2017-06-02T12:19:21.755Z,6.20
2017-06-02T12:21:49.286Z,5.60
2017-06-02T12:24:16.858Z,5.70
2017-06-02T12:26:45.194Z,5.60
2017-06-02T12:29:12.730Z,5.90
2017-06-02T12:31:40.238Z,6.50
2017-06-02T12:34:08.464Z,6.20
2017-06-02T12:36:36.002Z,7.20
2017-06-02T12:39:03.524Z,7.80
2017-06-02T12:41:31.038Z,8.00
2017-06-02T12:43:58.557Z,8.30
2017-06-02T13:03:45.576Z,8.30
2017-06-02T13:06:13.093Z,9.20
2017-06-02T13:08:41.431Z,9.20
2017-06-02T13:11:08.963Z,9.10
2017-06-02T13:13:36.488Z,9.60
2017-06-02T13:16:05.670Z,10.40
2017-06-02T13:18:33.194Z,10.40
2017-06-02T13:21:00.705Z,9.60
2017-06-02T13:23:28.977Z,10.30
2017-06-02T13:25:56.475Z,10.10
2017-06-02T13:28:24.007Z,11.40
2017-06-02T13:30:51.502Z,11.20
2017-06-02T13:33:19.069Z,11.40
2017-06-02T13:35:46.679Z,12.10
2017-06-02T13:38:14.193Z,12.70
2017-06-02T13:40:41.695Z,12.80
2017-06-02T13:43:09.232Z,12.10
2017-06-02T13:45:36.756Z,12.40
2017-06-02T13:48:04.347Z,13.20
2017-06-02T13:50:31.924Z,13.00
2017-06-02T13:52:59.481Z,12.40
2017-06-02T13:55:26.976Z,11.40
2017-06-02T13:57:54.475Z,11.30
2017-06-02T14:00:22.087Z,11.20
2017-06-02T14:02:50.427Z,10.70
2017-06-02T14:05:17.960Z,10.70
2017-06-02T14:07:45.466Z,10.70
2017-06-02T14:10:12.998Z,9.90
2017-06-02T14:12:40.499Z,9.80
2017-06-02T14:15:08.034Z,9.90
2017-06-02T14:17:35.566Z,10.30
2017-06-02T14:20:03.095Z,9.80
2017-06-02T14:22:30.594Z,9.50
2017-06-02T14:24:58.095Z,9.20
2017-06-02T14:27:26.385Z,9.90
2017-06-02T14:29:53.935Z,9.90
2017-06-02T14:32:21.429Z,9.80
2017-06-02T14:34:48.960Z,9.70
2017-06-02T14:37:17.332Z,9.60
2017-06-02T14:39:45.115Z,9.50
2017-06-02T14:42:12.627Z,10.30
2017-06-02T14:44:40.134Z,9.60
2017-06-02T14:47:07.717Z,9.50
2017-06-02T14:49:35.678Z,8.70
2017-06-02T14:52:03.290Z,10.10
2017-06-02T14:54:30.784Z,9.30
2017-06-02T14:56:58.340Z,10.20
2017-06-02T14:59:25.827Z,9.70
2017-06-02T15:01:53.311Z,9.50
2017-06-02T15:04:20.832Z,9.90
2017-06-02T15:06:48.334Z,10.90
2017-06-02T15:09:15.864Z,11.70
2017-06-02T15:11:43.388Z,11.20
2017-06-02T15:14:10.943Z,10.90
2017-06-02T15:16:39.240Z,10.40
2017-06-02T15:19:07.564Z,10.30
2017-06-02T15:21:35.074Z,9.50
2017-06-02T15:24:02.594Z,9.40
2017-06-02T15:26:30.176Z,9.40
2017-06-02T15:28:57.767Z,9.60
2017-06-02T15:31:25.288Z,10.00
2017-06-02T15:33:52.823Z,10.40
2017-06-02T15:36:20.498Z,10.00
2017-06-02T15:38:48.020Z,10.20
2017-06-02T15:41:15.556Z,10.00
2017-06-02T15:43:43.107Z,9.50
2017-06-02T15:46:10.641Z,10.50
2017-06-02T15:48:38.161Z,10.10
2017-06-02T15:51:05.672Z,10.20
2017-06-02T15:53:33.215Z,10.20
2017-06-02T15:56:00.787Z,10.90
2017-06-02T15:58:29.087Z,11.30
2017-06-02T16:00:56.615Z,11.30
2017-06-02T16:03:24.207Z,11.20
2017-06-02T16:05:52.294Z,11.40
2017-06-02T16:08:19.858Z,11.40
2017-06-02T16:10:47.427Z,11.70
2017-06-02T16:13:14.988Z,12.60
2017-06-02T16:15:42.512Z,13.20
2017-06-02T16:18:10.778Z,12.00
2017-06-02T16:20:39.070Z,12.40
2017-06-02T16:23:06.607Z,12.40
2017-06-02T16:25:34.152Z,12.80
2017-06-02T16:28:02.727Z,13.10
2017-06-02T16:30:30.327Z,13.20
2017-06-02T16:32:57.862Z,13.60
2017-06-02T16:35:25.451Z,13.90
2017-06-02T16:37:52.960Z,14.00
2017-06-02T16:40:20.495Z,13.60
2017-06-02T16:42:48.038Z,13.40
2017-06-02T16:45:15.561Z,13.30
2017-06-02T16:47:43.204Z,12.70
2017-06-02T16:50:10.725Z,12.50
2017-06-02T16:52:38.259Z,12.70
2017-06-02T16:55:05.783Z,13.00
2017-06-02T16:57:33.294Z,12.60
2017-06-02T17:00:00.819Z,11.90
2017-06-02T17:02:28.369Z,11.30
2017-06-02T17:04:55.875Z,10.70
2017-06-02T17:07:23.422Z,11.00
2017-06-02T17:09:50.976Z,10.90
2017-06-02T17:12:18.488Z,10.90
2017-06-02T17:14:46.009Z,11.20
2017-06-02T17:19:50.464Z,10.80
2017-06-02T17:22:17.989Z,11.10
2017-06-02T17:24:46.290Z,12.00
2017-06-02T17:27:13.829Z,12.00
2017-06-02T17:29:41.359Z,12.20
2017-06-02T17:32:08.989Z,12.50
2017-06-02T17:34:36.530Z,13.00
2017-06-02T17:37:04.044Z,14.10
2017-06-02T17:39:31.571Z,15.00
2017-06-02T17:41:59.421Z,15.60
2017-06-02T17:44:26.932Z,15.90
2017-06-02T17:46:54.466Z,15.50
2017-06-02T17:49:22.136Z,16.00
2017-06-02T17:51:49.735Z,16.30
2017-06-02T17:54:18.021Z,18.20
2017-06-02T17:56:45.547Z,18.20
2017-06-02T17:59:13.138Z,18.80
2017-06-02T18:01:41.402Z,19.50
2017-06-02T18:04:09.158Z,19.40
2017-06-02T18:06:36.680Z,20.00
2017-06-02T18:09:04.201Z,20.90
2017-06-02T18:11:32.512Z,22.30
2017-06-02T18:14:00.023Z,22.30
2017-06-02T18:16:27.548Z,23.10
2017-06-02T18:18:55.082Z,23.60
2017-06-02T18:21:22.591Z,23.80
2017-06-02T18:23:50.299Z,24.00
2017-06-02T18:26:17.799Z,24.20
2017-06-02T18:28:45.305Z,24.50
2017-06-02T18:31:12.829Z,25.00
2017-06-02T18:33:40.355Z,25.50
2017-06-02T18:36:07.888Z,25.90
2017-06-02T18:38:35.624Z,26.20
2017-06-02T18:41:03.111Z,26.80
2017-06-02T18:43:30.754Z,27.20
2017-06-02T18:45:58.285Z,27.70
2017-06-02T18:48:25.803Z,28.10
2017-06-02T18:50:53.362Z,28.60
2017-06-02T18:53:20.875Z,29.10
2017-06-02T18:55:49.261Z,29.30
2017-06-02T18:58:16.884Z,29.50
2017-06-02T19:00:44.420Z,29.80
2017-06-02T19:03:11.945Z,30.00
2017-06-02T19:05:39.460Z,30.10
2017-06-02T19:08:06.983Z,30.20
2017-06-02T19:10:34.513Z,30.60
2017-06-02T19:13:02.011Z,31.00
2017-06-02T19:15:29.558Z,31.20
2017-06-02T19:17:57.076Z,31.40
2017-06-02T19:20:27.539Z,31.50
2017-06-02T19:22:55.100Z,32.30
2017-06-02T19:25:23.391Z,32.40
2017-06-02T19:27:50.931Z,32.40
2017-06-02T19:30:19.209Z,33.30
2017-06-02T19:32:46.731Z,32.60
2017-06-02T19:35:14.311Z,33.10
2017-06-02T19:37:41.803Z,33.30
2017-06-02T19:40:09.330Z,33.60
2017-06-02T19:42:36.837Z,33.90
2017-06-02T19:45:04.387Z,34.10
2017-06-02T19:47:31.922Z,34.20
2017-06-02T19:49:59.486Z,34.40
2017-06-02T19:52:27.038Z,34.60
2017-06-02T19:54:54.531Z,34.80
2017-06-02T19:57:28.886Z,35.00
2017-06-02T19:59:56.414Z,35.10
2017-06-02T20:02:23.942Z,35.60
2017-06-02T20:04:51.473Z,35.90
2017-06-02T20:07:19.291Z,36.50
2017-06-02T20:09:46.820Z,37.00
2017-06-02T20:12:15.100Z,37.30
2017-06-02T20:14:42.614Z,37.20
2017-06-02T20:17:10.131Z,37.10
2017-06-02T20:19:37.641Z,36.40
2017-06-02T20:22:05.466Z,36.00
2017-06-02T20:24:32.997Z,35.80
2017-06-02T20:27:00.525Z,35.40
2017-06-02T20:29:28.066Z,34.90
2017-06-02T20:31:55.562Z,34.50
2017-06-02T20:34:23.107Z,34.00
2017-06-02T20:36:50.619Z,33.40
2017-06-02T20:39:18.125Z,33.00
2017-06-02T20:41:45.669Z,32.90
2017-06-02T20:44:13.178Z,32.70
2017-06-02T20:46:40.688Z,32.20
2017-06-02T20:49:08.297Z,32.10
2017-06-02T20:51:35.817Z,32.10
2017-06-02T20:54:03.319Z,31.60
2017-06-02T20:56:31.592Z,31.60
2017-06-02T20:58:59.847Z,31.30
2017-06-02T21:01:27.341Z,31.30
2017-06-02T21:03:55.995Z,30.80
2017-06-02T21:06:23.630Z,30.70
2017-06-02T21:08:51.176Z,30.80
2017-06-02T21:11:18.699Z,30.70
2017-06-02T21:13:46.242Z,31.40
2017-06-02T21:16:13.779Z,30.20
2017-06-02T21:18:41.368Z,30.30
2017-06-02T21:21:08.907Z,29.90
2017-06-02T21:23:36.447Z,29.70
2017-06-02T21:26:04.639Z,29.70
2017-06-02T21:28:32.181Z,29.60
2017-06-02T21:30:59.690Z,29.80
2017-06-02T21:33:27.212Z,29.70
2017-06-02T21:35:54.714Z,29.80
2017-06-02T21:38:22.239Z,29.80
2017-06-02T21:40:49.730Z,29.60
2017-06-02T21:43:18.061Z,29.20
2017-06-02T21:45:45.588Z,29.10
2017-06-02T21:48:13.094Z,29.70
2017-06-02T21:50:40.620Z,29.80
2017-06-02T21:53:08.163Z,29.60
2017-06-02T21:55:35.659Z,29.70
2017-06-02T21:58:03.174Z,29.50
2017-06-02T22:00:31.474Z,29.80
2017-06-02T22:02:58.974Z,29.80
2017-06-02T22:05:26.508Z,29.80
2017-06-02T22:07:54.040Z,29.80
2017-06-02T22:10:21.541Z,29.50
2017-06-02T22:12:49.051Z,29.70
2017-06-02T22:15:16.590Z,29.80
2017-06-02T22:17:44.142Z,29.90
2017-06-02T22:20:11.656Z,29.70
2017-06-02T22:22:39.261Z,29.90
2017-06-02T22:25:06.786Z,30.20
2017-06-02T22:27:34.293Z,30.20
2017-06-02T22:30:01.785Z,30.50
2017-06-02T22:32:29.348Z,30.70
2017-06-02T22:34:56.914Z,30.90
2017-06-02T22:37:24.419Z,31.00
2017-06-02T22:39:51.938Z,31.30
2017-06-02T22:42:19.453Z,31.50
2017-06-02T22:44:47.726Z,32.00
2017-06-02T22:47:15.324Z,31.80
2017-06-02T22:49:42.845Z,31.80
2017-06-02T22:52:10.337Z,31.90
2017-06-02T22:54:38.283Z,32.00
2017-06-02T22:57:05.861Z,32.10
2017-06-02T22:59:33.362Z,32.30
2017-06-02T23:02:00.864Z,32.70
2017-06-02T23:04:28.368Z,33.00
2017-06-02T23:06:55.977Z,33.00
2017-06-02T23:09:23.483Z,33.00
2017-06-02T23:11:50.999Z,33.10
2017-06-02T23:14:19.255Z,33.70
2017-06-02T23:16:46.792Z,33.60
2017-06-02T23:19:14.308Z,33.80
2017-06-02T23:21:41.883Z,33.60
2017-06-02T23:24:09.391Z,33.80
2017-06-02T23:26:36.947Z,34.10
2017-06-02T23:29:04.470Z,34.20
2017-06-02T23:31:32.044Z,33.90
2017-06-02T23:33:59.544Z,33.70
2017-06-02T23:36:27.155Z,33.60
2017-06-02T23:38:55.223Z,33.80
2017-06-02T23:41:22.760Z,33.90
2017-06-02T23:43:50.278Z,33.80
2017-06-02T23:46:17.959Z,33.90
2017-06-02T23:48:45.463Z,34.00
2017-06-02T23:51:13.015Z,34.10
2017-06-02T23:53:40.507Z,34.20
2017-06-02T23:56:08.021Z,34.10
2017-06-02T23:58:35.546Z,34.10
